createdAt,value
2022-12-01T00:01:36.059Z,98118.97
2022-12-01T00:04:03.999Z,98123.31
2022-12-01T00:06:31.871Z,98114.63
2022-12-01T00:09:20.286Z,98123.56
2022-12-01T00:11:48.847Z,98118.97
2022-12-01T00:14:16.735Z,98118.25
2022-12-01T00:16:44.857Z,98116.84
2022-12-01T00:19:12.946Z,98114.50
2022-12-01T00:21:40.780Z,98112.81
2022-12-01T00:24:11.649Z,98106.78
2022-12-01T00:26:39.869Z,98109.44
2022-12-01T00:29:08.801Z,98112.81
2022-12-01T00:31:36.997Z,98113.06
2022-12-01T00:34:09.677Z,98115.19
2022-12-01T00:36:39.775Z,98118.78
2022-12-01T00:39:08.463Z,98111.53
2022-12-01T00:41:36.226Z,98118.38
2022-12-01T00:44:04.280Z,98117.41
2022-12-01T00:46:32.178Z,98116.44
2022-12-01T00:49:00.008Z,98114.63
2022-12-01T00:51:27.781Z,98111.13
2022-12-01T00:53:55.580Z,98109.44
2022-12-01T00:56:23.357Z,98117.66
2022-12-01T00:58:51.191Z,98126.50
2022-12-01T01:01:19.612Z,98123.25
2022-12-01T01:03:47.804Z,98120.84
2022-12-01T01:06:16.600Z,98127.03
2022-12-01T01:08:46.272Z,98124.47
2022-12-01T01:11:14.091Z,98123.50
2022-12-01T01:13:41.965Z,98125.88
2022-12-01T01:16:20.943Z,98118.88
2022-12-01T01:18:50.001Z,98126.69
2022-12-01T01:21:21.264Z,98126.69
2022-12-01T01:23:50.333Z,98130.72
2022-12-01T01:26:22.845Z,98126.91
2022-12-01T01:28:51.762Z,98129.56
2022-12-01T01:31:25.140Z,98131.25
2022-12-01T01:33:52.948Z,98129.44
2022-12-01T01:36:20.954Z,98132.50
2022-12-01T01:38:51.648Z,98135.28
2022-12-01T01:41:21.050Z,98134.34
2022-12-01T01:43:56.070Z,98133.63
2022-12-01T01:46:29.769Z,98134.16
2022-12-01T01:49:11.300Z,98140.06
2022-12-01T01:51:54.023Z,98139.09
2022-12-01T01:54:33.050Z,98135.31
2022-12-01T01:57:02.215Z,98139.81
2022-12-01T01:59:49.186Z,98139.09
2022-12-01T02:02:17.639Z,98133.09
2022-12-01T02:04:51.378Z,98132.50
2022-12-01T02:07:20.699Z,98133.63
2022-12-01T02:09:48.801Z,98129.97
2022-12-01T02:12:31.590Z,98139.75
2022-12-01T02:15:37.035Z,98129.81
2022-12-01T02:18:29.895Z,98122.44
2022-12-01T02:21:21.965Z,98125.22
2022-12-01T02:24:29.128Z,98114.63
2022-12-01T02:26:59.851Z,98110.69
2022-12-01T02:29:59.274Z,98114.84
2022-12-01T02:33:27.927Z,98107.28
2022-12-01T02:36:22.408Z,98105.22
2022-12-01T02:38:58.267Z,98103.28
2022-12-01T02:41:47.755Z,98105.91
2022-12-01T02:44:44.701Z,98108.28
2022-12-01T02:47:17.229Z,98105.13
2022-12-01T02:49:52.899Z,98110.44
2022-12-01T02:52:24.004Z,98103.19
2022-12-01T02:54:53.297Z,98109.03
2022-12-01T02:57:24.866Z,98104.59
2022-12-01T02:59:55.095Z,98116.16
2022-12-01T03:02:50.580Z,98123.28
2022-12-01T03:05:24.599Z,98116.97
2022-12-01T03:08:08.384Z,98114.63
2022-12-01T03:10:59.218Z,98118.81
2022-12-01T03:14:09.497Z,98114.44
2022-12-01T03:17:09.137Z,98112.63
2022-12-01T03:20:11.757Z,98112.75
2022-12-01T03:22:51.636Z,98113.75
2022-12-01T03:25:21.937Z,98116.25
2022-12-01T03:28:20.124Z,98111.81
2022-12-01T03:30:46.649Z,98103.28
2022-12-01T03:33:25.600Z,98106.13
2022-12-01T03:36:01.402Z,98099.41
2022-12-01T03:38:31.977Z,98102.19
2022-12-01T03:41:10.879Z,98101.50
2022-12-01T03:43:44.791Z,98108.63
2022-12-01T03:46:46.888Z,98109.97
2022-12-01T03:49:17.211Z,98106.22
2022-12-01T03:52:32.913Z,98111.09
2022-12-01T03:55:21.006Z,98113.03
2022-12-01T03:58:29.372Z,98114.81
2022-12-01T04:00:58.527Z,98117.94
2022-12-01T04:03:27.119Z,98117.81
2022-12-01T04:05:55.795Z,98118.50
2022-12-01T04:08:23.924Z,98108.03
2022-12-01T04:10:51.980Z,98109.97
2022-12-01T04:13:23.322Z,98108.16
2022-12-01T04:15:54.995Z,98110.97
2022-12-01T04:18:22.903Z,98111.94
2022-12-01T04:20:51.054Z,98105.66
2022-12-01T04:23:37.673Z,98113.75
2022-12-01T04:26:06.712Z,98105.09
2022-12-01T04:28:36.767Z,98113.63
2022-12-01T04:31:04.670Z,98112.50
2022-12-01T04:33:32.565Z,98115.28
2022-12-01T04:36:01.340Z,98117.69
2022-12-01T04:38:30.981Z,98110.56
2022-12-01T04:40:59.036Z,98123.69
2022-12-01T04:43:26.838Z,98119.91
2022-12-01T04:45:54.603Z,98122.13
2022-12-01T04:48:22.379Z,98120.72
2022-12-01T04:50:50.363Z,98128.94
2022-12-01T04:53:18.156Z,98128.66
2022-12-01T04:55:45.956Z,98118.06
2022-12-01T04:58:13.804Z,98125.31
2022-12-01T05:00:41.569Z,98119.03
2022-12-01T05:03:14.736Z,98128.66
2022-12-01T05:05:43.093Z,98119.47
2022-12-01T05:08:11.139Z,98129.00
2022-12-01T05:10:39.066Z,98126.34
2022-12-01T05:13:06.967Z,98132.47
2022-12-01T05:15:34.781Z,98132.34
2022-12-01T05:18:02.593Z,98129.69
2022-12-01T05:20:48.774Z,98128.88
2022-12-01T05:23:17.261Z,98132.47
2022-12-01T05:25:45.174Z,98142.13
2022-12-01T05:28:13.008Z,98131.50
2022-12-01T05:30:40.912Z,98136.53
2022-12-01T05:33:09.104Z,98124.97
2022-12-01T05:35:37.052Z,98130.13
2022-12-01T05:38:07.974Z,98127.63
2022-12-01T05:40:37.522Z,98128.00
2022-12-01T05:43:06.103Z,98122.41
2022-12-01T05:45:34.741Z,98126.13
2022-12-01T05:48:02.965Z,98122.94
2022-12-01T05:50:31.803Z,98122.22
2022-12-01T05:52:59.712Z,98129.97
2022-12-01T05:55:27.571Z,98136.25
2022-12-01T05:57:55.403Z,98128.19
2022-12-01T06:00:23.214Z,98133.31
2022-12-01T06:02:51.016Z,98135.97
2022-12-01T06:05:18.782Z,98133.59
2022-12-01T06:07:46.806Z,98133.47
2022-12-01T06:10:14.810Z,98132.31
2022-12-01T06:12:42.596Z,98138.84
2022-12-01T06:15:12.454Z,98144.97
2022-12-01T06:17:40.703Z,98136.06
2022-12-01T06:20:10.457Z,98140.50
2022-12-01T06:22:38.249Z,98139.78
2022-12-01T06:25:07.002Z,98136.19
2022-12-01T06:27:34.782Z,98150.72
2022-12-01T06:30:03.880Z,98146.84
2022-12-01T06:32:31.670Z,98147.44
2022-12-01T06:34:59.449Z,98153.81
2022-12-01T06:37:28.424Z,98156.63
2022-12-01T06:39:56.403Z,98162.94
2022-12-01T06:42:24.204Z,98159.31
2022-12-01T06:44:51.986Z,98162.69
2022-12-01T06:47:19.828Z,98163.38
2022-12-01T06:49:48.017Z,98163.25
2022-12-01T06:52:16.050Z,98167.47
2022-12-01T06:54:43.802Z,98162.28
2022-12-01T06:57:11.959Z,98165.63
2022-12-01T06:59:39.981Z,98161.44
2022-12-01T07:02:11.871Z,98158.91
2022-12-01T07:04:39.717Z,98169.41
2022-12-01T07:07:07.582Z,98171.91
2022-12-01T07:09:35.536Z,98170.94
2022-12-01T07:12:03.512Z,98174.56
2022-12-01T07:14:32.464Z,98178.53
2022-12-01T07:17:00.320Z,98177.41
2022-12-01T07:19:28.209Z,98172.94
2022-12-01T07:21:56.286Z,98172.13
2022-12-01T07:24:24.058Z,98178.25
2022-12-01T07:26:51.849Z,98181.28
2022-12-01T07:29:19.684Z,98173.34
2022-12-01T07:31:47.478Z,98178.53
2022-12-01T07:34:15.326Z,98181.88
2022-12-01T07:36:43.154Z,98187.81
2022-12-01T07:39:10.908Z,98198.81
2022-12-01T07:41:38.711Z,98191.88
2022-12-01T07:44:06.819Z,98204.13
2022-12-01T07:46:34.651Z,98201.25
2022-12-01T07:49:07.172Z,98198.47
2022-12-01T07:51:35.148Z,98203.50
2022-12-01T07:54:05.571Z,98199.81
2022-12-01T07:56:35.248Z,98197.28
2022-12-01T07:59:03.568Z,98205.28
2022-12-01T08:01:31.480Z,98206.88
2022-12-01T08:04:00.317Z,98205.66
2022-12-01T08:06:28.429Z,98196.28
2022-12-01T08:08:57.008Z,98201.31
2022-12-01T08:11:29.507Z,98196.97
2022-12-01T08:13:57.888Z,98200.31
2022-12-01T08:16:26.065Z,98198.75
2022-12-01T08:18:54.322Z,98207.91
2022-12-01T08:21:24.145Z,98193.47
2022-12-01T08:23:57.343Z,98204.28
2022-12-01T08:26:27.005Z,98208.56
2022-12-01T08:28:55.006Z,98203.44
2022-12-01T08:31:27.471Z,98203.16
2022-12-01T08:33:55.892Z,98205.47
2022-12-01T08:36:24.609Z,98208.59
2022-12-01T08:38:55.698Z,98209.06
2022-12-01T08:41:24.716Z,98206.59
2022-12-01T08:43:58.404Z,98206.25
2022-12-01T08:46:31.440Z,98209.84
2022-12-01T08:49:00.168Z,98208.38
2022-12-01T08:51:28.558Z,98214.88
2022-12-01T08:53:58.614Z,98215.25
2022-12-01T08:56:37.214Z,98215.56
2022-12-01T08:59:06.216Z,98222.38
2022-12-01T09:01:34.933Z,98223.44
2022-12-01T09:04:08.386Z,98230.28
2022-12-01T09:06:46.928Z,98227.72
2022-12-01T09:09:18.892Z,98225.44
2022-12-01T09:11:47.970Z,98223.50
2022-12-01T09:14:18.218Z,98222.63
2022-12-01T09:16:49.800Z,98229.03
2022-12-01T09:19:24.713Z,98227.50
2022-12-01T09:21:53.197Z,98230.72
2022-12-01T09:24:21.220Z,98227.94
2022-12-01T09:26:49.250Z,98232.28
2022-12-01T09:29:17.558Z,98227.69
2022-12-01T09:31:45.397Z,98233.09
2022-12-01T09:34:20.110Z,98233.81
2022-12-01T09:36:48.888Z,98234.28
2022-12-01T09:39:19.836Z,98224.28
2022-12-01T09:42:09.121Z,98231.75
2022-12-01T09:44:55.921Z,98225.56
2022-12-01T09:47:37.015Z,98219.69
2022-12-01T09:50:16.491Z,98215.28
2022-12-01T09:52:50.871Z,98214.56
2022-12-01T09:55:21.956Z,98221.66
2022-12-01T09:57:55.949Z,98216.25
2022-12-01T10:00:25.786Z,98214.00
2022-12-01T10:03:56.907Z,98213.28
2022-12-01T10:06:40.393Z,98202.53
2022-12-01T10:09:26.403Z,98206.31
2022-12-01T10:12:13.446Z,98207.41
2022-12-01T10:14:41.274Z,98201.81
2022-12-01T10:17:43.259Z,98195.84
2022-12-01T10:21:01.002Z,98201.75
2022-12-01T10:23:47.834Z,98191.56
2022-12-01T10:26:32.775Z,98191.06
2022-12-01T10:29:41.838Z,98196.81
2022-12-01T10:32:32.909Z,98189.97
2022-12-01T10:35:01.603Z,98177.41
2022-12-01T10:37:31.827Z,98184.50
2022-12-01T10:40:00.677Z,98181.28
2022-12-01T10:42:49.104Z,98185.16
2022-12-01T10:45:33.888Z,98178.75
2022-12-01T10:48:22.819Z,98185.03
2022-12-01T10:50:57.561Z,98175.84
2022-12-01T10:53:34.002Z,98170.09
2022-12-01T10:56:20.945Z,98168.03
2022-12-01T10:59:05.059Z,98167.28
2022-12-01T11:01:37.060Z,98161.09
2022-12-01T11:04:22.730Z,98159.31
2022-12-01T11:06:51.515Z,98162.63
2022-12-01T11:09:26.577Z,98169.00
2022-12-01T11:12:01.620Z,98157.44
2022-12-01T11:14:54.829Z,98156.56
2022-12-01T11:17:43.256Z,98158.34
2022-12-01T11:20:39.551Z,98159.25
2022-12-01T11:23:10.208Z,98151.16
2022-12-01T11:25:38.635Z,98147.66
2022-12-01T11:28:06.801Z,98153.69
2022-12-01T11:30:34.677Z,98147.56
2022-12-01T11:33:04.522Z,98147.25
2022-12-01T11:35:36.970Z,98151.59
2022-12-01T11:40:58.703Z,98142.50
2022-12-01T11:43:37.786Z,98138.34
2022-12-01T11:46:09.269Z,98133.09
2022-12-01T11:48:37.368Z,98127.97
2022-12-01T11:51:05.182Z,98129.91
2022-12-01T11:53:42.758Z,98127.25
2022-12-01T11:56:13.797Z,98129.91
2022-12-01T11:58:43.591Z,98123.53
2022-12-01T12:01:28.885Z,98126.75
2022-12-01T12:04:42.970Z,98122.94
2022-12-01T12:07:50.875Z,98124.53
2022-12-01T12:10:56.664Z,98121.94
2022-12-01T12:13:48.798Z,98125.47
2022-12-01T12:16:45.434Z,98119.88
2022-12-01T12:23:11.817Z,98127.91
2022-12-01T12:25:54.708Z,98125.19
2022-12-01T12:28:37.930Z,98118.66
2022-12-01T12:31:35.176Z,98115.81
2022-12-01T12:34:12.961Z,98113.63
2022-12-01T12:37:08.173Z,98104.13
2022-12-01T12:40:16.300Z,98108.78
2022-12-01T12:42:56.432Z,98103.09
2022-12-01T12:46:11.484Z,98095.28
2022-12-01T12:49:18.560Z,98100.44
2022-12-01T12:52:25.193Z,98090.56
2022-12-01T12:55:00.213Z,98096.38
2022-12-01T12:57:53.815Z,98097.88
2022-12-01T13:00:28.420Z,98101.41
2022-12-01T13:03:19.453Z,98104.06
2022-12-01T13:06:08.433Z,98101.69
2022-12-01T13:09:04.370Z,98093.50
2022-12-01T13:11:55.479Z,98095.78
2022-12-01T13:14:46.466Z,98097.88
2022-12-01T13:17:27.439Z,98095.66
2022-12-01T13:19:55.186Z,98094.28
2022-12-01T13:22:32.350Z,98090.50
2022-12-01T13:25:00.411Z,98088.56
2022-12-01T13:27:34.117Z,98085.41
2022-12-01T13:30:02.701Z,98090.19
2022-12-01T13:32:36.824Z,98081.97
2022-12-01T13:35:30.714Z,98083.44
2022-12-01T13:38:24.995Z,98082.84
2022-12-01T13:41:23.629Z,98090.72
2022-12-01T13:44:31.850Z,98085.16
2022-12-01T13:47:51.536Z,98085.72
2022-12-01T13:50:42.940Z,98085.00
2022-12-01T13:53:36.408Z,98082.34
2022-12-01T13:56:04.109Z,98086.25
2022-12-01T13:58:34.894Z,98083.19
2022-12-01T14:01:20.959Z,98077.44
2022-12-01T14:04:27.011Z,98085.13
2022-12-01T14:07:20.851Z,98081.66
2022-12-01T14:09:52.592Z,98075.72
2022-12-01T14:12:34.639Z,98084.16
2022-12-01T14:15:23.705Z,98077.88
2022-12-01T14:18:18.916Z,98083.44
2022-12-01T14:20:48.692Z,98082.81
2022-12-01T14:23:59.572Z,98088.38
2022-12-01T14:26:30.310Z,98082.69
2022-12-01T14:29:24.747Z,98086.72
2022-12-01T14:31:53.029Z,98080.75
2022-12-01T14:34:29.371Z,98084.81
2022-12-01T14:37:18.425Z,98074.88
2022-12-01T14:40:05.795Z,98078.22
2022-12-01T14:43:06.943Z,98078.34
2022-12-01T14:45:53.100Z,98078.13
2022-12-01T14:48:32.339Z,98082.09
2022-12-01T14:51:29.975Z,98083.81
2022-12-01T14:54:01.077Z,98081.31
2022-12-01T14:56:30.323Z,98077.81
2022-12-01T14:59:01.629Z,98069.97
2022-12-01T15:01:38.032Z,98072.78
2022-12-01T15:04:06.937Z,98071.09
2022-12-01T15:06:37.473Z,98071.53
2022-12-01T15:09:36.623Z,98073.63
2022-12-01T15:12:09.321Z,98072.78
2022-12-01T15:14:46.918Z,98074.78
2022-12-01T15:21:34.152Z,98060.56
2022-12-01T15:24:06.585Z,98066.94
2022-12-01T15:26:45.462Z,98061.97
2022-12-01T15:29:53.725Z,98071.38
2022-12-01T15:32:23.899Z,98070.78
2022-12-01T15:34:55.387Z,98072.06
2022-12-01T15:37:27.291Z,98068.00
2022-12-01T15:40:47.802Z,98064.19
2022-12-01T15:43:26.735Z,98073.63
2022-12-01T15:45:59.872Z,98074.94
2022-12-01T15:48:36.461Z,98070.56
2022-12-01T15:51:19.288Z,98069.97
2022-12-01T15:54:01.792Z,98071.03
2022-12-01T15:56:39.902Z,98076.78
2022-12-01T15:59:26.004Z,98078.66
2022-12-01T16:01:54.553Z,98077.72
2022-12-01T16:04:28.150Z,98077.78
2022-12-01T16:07:50.173Z,98071.16
2022-12-01T16:10:44.730Z,98078.44
2022-12-01T16:14:04.861Z,98076.75
2022-12-01T16:16:45.580Z,98075.72
2022-12-01T16:19:19.541Z,98082.56
2022-12-01T16:21:50.429Z,98083.03
2022-12-01T16:24:28.855Z,98086.56
2022-12-01T16:27:06.062Z,98086.22
2022-12-01T16:30:23.513Z,98086.75
2022-12-01T16:32:52.059Z,98088.03
2022-12-01T16:35:31.823Z,98083.78
2022-12-01T16:38:10.828Z,98083.50
2022-12-01T16:40:44.992Z,98086.03
2022-12-01T16:43:24.448Z,98084.66
2022-12-01T16:46:01.334Z,98084.88
2022-12-01T16:48:30.642Z,98078.22
2022-12-01T16:51:04.036Z,98080.59
2022-12-01T16:53:32.052Z,98085.63
2022-12-01T16:56:02.216Z,98080.03
2022-12-01T16:58:30.197Z,98086.28
2022-12-01T17:00:58.659Z,98082.03
2022-12-01T17:03:28.378Z,98085.84
2022-12-01T17:05:59.107Z,98089.09
2022-12-01T17:08:27.231Z,98081.59
2022-12-01T17:10:55.488Z,98083.97
2022-12-01T17:13:23.760Z,98079.44
2022-12-01T17:15:54.553Z,98085.41
2022-12-01T17:18:24.302Z,98094.63
2022-12-01T17:21:06.216Z,98092.97
2022-12-01T17:23:34.715Z,98096.69
2022-12-01T17:26:06.338Z,98096.38
2022-12-01T17:28:34.432Z,98093.03
2022-12-01T17:31:03.463Z,98090.88
2022-12-01T17:33:31.754Z,98086.94
2022-12-01T17:36:20.717Z,98094.50
2022-12-01T17:38:48.965Z,98084.63
2022-12-01T17:41:25.491Z,98086.47
2022-12-01T17:43:53.303Z,98087.59
2022-12-01T17:46:21.205Z,98090.50
2022-12-01T17:48:49.247Z,98094.78
2022-12-01T17:51:17.081Z,98090.81
2022-12-01T17:53:44.933Z,98095.22
2022-12-01T17:56:16.017Z,98094.63
2022-12-01T17:58:44.316Z,98094.03
2022-12-01T18:01:18.676Z,98099.34
2022-12-01T18:03:48.107Z,98099.41
2022-12-01T18:06:17.628Z,98097.84
2022-12-01T18:08:46.120Z,98095.03
2022-12-01T18:11:16.398Z,98092.81
2022-12-01T18:13:49.079Z,98097.09
2022-12-01T18:16:30.199Z,98098.50
2022-12-01T18:18:59.931Z,98099.69
2022-12-01T18:21:28.758Z,98097.94
2022-12-01T18:24:03.259Z,98098.69
2022-12-01T18:26:33.560Z,98093.94
2022-12-01T18:29:16.095Z,98095.91
2022-12-01T18:31:45.076Z,98084.34
2022-12-01T18:34:12.988Z,98086.63
2022-12-01T18:36:42.138Z,98087.25
2022-12-01T18:39:11.940Z,98081.97
2022-12-01T18:41:40.580Z,98089.63
2022-12-01T18:44:08.812Z,98087.31
2022-12-01T18:46:36.682Z,98085.13
2022-12-01T18:49:06.766Z,98080.94
2022-12-01T18:51:37.412Z,98076.53
2022-12-01T18:54:08.519Z,98082.09
2022-12-01T18:56:37.861Z,98077.38
2022-12-01T18:59:08.653Z,98080.91
2022-12-01T19:01:40.214Z,98073.44
2022-12-01T19:04:10.289Z,98075.44
2022-12-01T19:06:40.351Z,98073.84
2022-12-01T19:09:12.376Z,98064.66
2022-12-01T19:11:41.900Z,98074.38
2022-12-01T19:14:18.765Z,98073.38
2022-12-01T19:16:47.370Z,98069.56
2022-12-01T19:19:16.322Z,98070.09
2022-12-01T19:21:45.464Z,98070.97
2022-12-01T19:24:13.793Z,98074.38
2022-12-01T19:26:41.663Z,98072.88
2022-12-01T19:29:09.672Z,98069.56
2022-12-01T19:31:37.799Z,98067.25
2022-12-01T19:34:05.987Z,98071.63
2022-12-01T19:36:33.952Z,98062.84
2022-12-01T19:39:04.322Z,98068.50
2022-12-01T19:41:38.561Z,98060.47
2022-12-01T19:44:06.687Z,98063.44
2022-12-01T19:46:34.565Z,98059.19
2022-12-01T19:49:03.379Z,98058.06
2022-12-01T19:51:35.394Z,98061.03
2022-12-01T19:54:11.019Z,98056.38
2022-12-01T19:56:38.940Z,98057.94
2022-12-01T19:59:08.066Z,98056.44
2022-12-01T20:01:35.939Z,98057.41
2022-12-01T20:04:04.662Z,98057.78
2022-12-01T20:06:35.705Z,98058.91
2022-12-01T20:09:07.202Z,98071.69
2022-12-01T20:11:35.724Z,98052.19
2022-12-01T20:14:07.475Z,98053.03
2022-12-01T20:16:35.899Z,98065.31
2022-12-01T20:19:05.447Z,98064.31
2022-12-01T20:21:42.365Z,98063.81
2022-12-01T20:24:17.399Z,98059.34
2022-12-01T20:26:49.659Z,98059.06
2022-12-01T20:29:25.202Z,98061.88
2022-12-01T20:31:56.341Z,98061.31
2022-12-01T20:34:31.661Z,98063.63
2022-12-01T20:37:00.569Z,98073.78
2022-12-01T20:39:31.456Z,98072.63
2022-12-01T20:41:59.259Z,98072.03
2022-12-01T20:44:28.262Z,98081.72
2022-12-01T20:46:56.441Z,98074.34
2022-12-01T20:49:24.447Z,98063.50
2022-12-01T20:51:52.386Z,98064.53
2022-12-01T20:54:29.574Z,98069.56
2022-12-01T20:56:59.255Z,98067.44
2022-12-01T20:59:27.539Z,98069.13
2022-12-01T21:01:55.559Z,98082.69
2022-12-01T21:04:23.516Z,98063.91
2022-12-01T21:06:55.772Z,98068.91
2022-12-01T21:09:23.605Z,98074.09
2022-12-01T21:12:10.405Z,98067.56
2022-12-01T21:14:48.768Z,98066.09
2022-12-01T21:18:00.727Z,98058.59
2022-12-01T21:20:39.293Z,98057.09
2022-12-01T21:23:12.647Z,98051.38
2022-12-01T21:25:42.586Z,98052.50
2022-12-01T21:28:20.195Z,98053.88
2022-12-01T21:30:49.700Z,98054.53
2022-12-01T21:33:41.065Z,98050.00
2022-12-01T21:36:21.829Z,98051.94
2022-12-01T21:38:56.030Z,98048.47
2022-12-01T21:41:31.597Z,98046.41
2022-12-01T21:44:16.693Z,98040.00
2022-12-01T21:46:45.176Z,98036.25
2022-12-01T21:49:21.398Z,98035.06
2022-12-01T21:51:51.965Z,98038.38
2022-12-01T21:54:21.610Z,98042.78
2022-12-01T21:56:52.284Z,98034.19
2022-12-01T21:59:23.047Z,98033.53
2022-12-01T22:01:57.501Z,98036.72
2022-12-01T22:04:31.339Z,98037.56
2022-12-01T22:06:59.582Z,98026.88
2022-12-01T22:09:35.922Z,98031.03
2022-12-01T22:12:28.998Z,98024.44
2022-12-01T22:15:01.604Z,98017.13
2022-12-01T22:17:30.173Z,98024.19
2022-12-01T22:20:02.365Z,98024.31
2022-12-01T22:22:32.834Z,98016.63
2022-12-01T22:25:26.311Z,98019.66
2022-12-01T22:27:54.601Z,98019.53
2022-12-01T22:30:24.121Z,98022.94
2022-12-01T22:32:59.305Z,98019.25
2022-12-01T22:35:29.845Z,98022.09
2022-12-01T22:38:06.443Z,98020.88
2022-12-01T22:40:38.239Z,98021.44
2022-12-01T22:43:17.981Z,98024.59
2022-12-01T22:45:48.503Z,98017.97
2022-12-01T22:48:28.059Z,98025.44
2022-12-01T22:50:58.585Z,98016.81
2022-12-01T22:53:31.391Z,98013.41
2022-12-01T22:56:01.578Z,98011.06
2022-12-01T22:58:41.151Z,98016.88
2022-12-01T23:01:31.010Z,98013.41
2022-12-01T23:04:32.799Z,98012.66
2022-12-01T23:07:28.009Z,98021.84
2022-12-01T23:10:14.570Z,98013.72
2022-12-01T23:12:44.212Z,98013.13
2022-12-01T23:15:39.468Z,98017.00
2022-12-01T23:18:27.043Z,98016.78
2022-12-01T23:21:02.481Z,98015.78
2022-12-01T23:23:36.417Z,98013.47
2022-12-01T23:26:08.197Z,98011.84
2022-12-01T23:28:38.851Z,98005.31
2022-12-01T23:31:06.958Z,98010.81
2022-12-01T23:33:35.613Z,97999.72
2022-12-01T23:36:18.800Z,98004.03
2022-12-01T23:38:52.973Z,98006.44
2022-12-01T23:41:39.382Z,98003.00
2022-12-01T23:44:41.903Z,97991.13
2022-12-01T23:47:22.249Z,97997.63
2022-12-01T23:50:03.529Z,97994.13
2022-12-01T23:52:36.169Z,97997.44
2022-12-01T23:55:25.709Z,97990.66
2022-12-01T23:57:54.477Z,97984.81
